createdAt,value
2018-07-07T00:00:38.981Z,99.99
2018-07-07T00:01:38.975Z,99.99
2018-07-07T00:02:38.830Z,99.99
2018-07-07T00:03:38.703Z,99.99
2018-07-07T00:04:38.613Z,99.99
2018-07-07T00:05:38.523Z,99.99
2018-07-07T00:06:38.438Z,99.99
2018-07-07T00:07:38.366Z,99.99
2018-07-07T00:08:38.336Z,99.99
2018-07-07T00:09:38.156Z,99.99
2018-07-07T00:10:38.066Z,99.99
2018-07-07T00:11:37.971Z,99.99
2018-07-07T00:12:37.913Z,99.99
2018-07-07T00:13:37.785Z,99.99
2018-07-07T00:14:37.695Z,99.99
2018-07-07T00:15:37.696Z,99.99
2018-07-07T00:16:37.512Z,99.99
2018-07-07T00:17:37.454Z,99.99
2018-07-07T00:18:37.326Z,99.99
2018-07-07T00:19:37.237Z,99.99
2018-07-07T00:20:37.149Z,99.99
2018-07-07T00:21:37.053Z,99.99
2018-07-07T00:22:36.993Z,99.99
2018-07-07T00:23:36.868Z,99.99
2018-07-07T00:24:36.777Z,99.99
2018-07-07T00:25:36.687Z,99.99
2018-07-07T00:26:36.607Z,99.99
2018-07-07T00:27:36.536Z,99.99
2018-07-07T00:28:36.411Z,99.99
2018-07-07T00:29:36.320Z,99.99
2018-07-07T00:30:36.224Z,99.99
2018-07-07T00:31:36.134Z,99.99
2018-07-07T00:32:36.073Z,99.99
2018-07-07T00:33:35.949Z,99.99
2018-07-07T00:34:35.858Z,99.99
2018-07-07T00:35:35.767Z,99.99
2018-07-07T00:36:35.673Z,97.51
2018-07-07T00:37:35.617Z,96.65
2018-07-07T00:38:35.489Z,98.36
2018-07-07T00:39:35.397Z,99.99
2018-07-07T00:40:35.306Z,99.99
2018-07-07T00:41:35.213Z,99.99
2018-07-07T00:42:35.150Z,99.99
2018-07-07T00:43:35.032Z,99.99
2018-07-07T00:44:34.939Z,99.99
2018-07-07T00:45:34.844Z,99.99
2018-07-07T00:46:34.750Z,99.99
2018-07-07T00:47:34.661Z,99.99
2018-07-07T00:48:34.596Z,99.99
2018-07-07T00:49:34.476Z,99.99
2018-07-07T00:50:34.382Z,99.99
2018-07-07T00:51:34.291Z,99.99
2018-07-07T00:52:34.199Z,99.99
2018-07-07T00:53:34.138Z,98.55
2018-07-07T00:54:34.103Z,95.27
2018-07-07T00:55:33.922Z,92.22
2018-07-07T00:56:33.837Z,89.75
2018-07-07T00:57:33.740Z,87.07
2018-07-07T00:58:33.674Z,84.88
2018-07-07T00:59:33.556Z,83.45
2018-07-07T01:00:33.459Z,81.93
2018-07-07T01:01:33.366Z,85.27
2018-07-07T01:02:33.275Z,90.36
2018-07-07T01:03:33.213Z,92.74
2018-07-07T01:04:33.090Z,93.03
2018-07-07T01:05:33.001Z,93.70
2018-07-07T01:06:32.904Z,91.70
2018-07-07T01:07:32.818Z,88.56
2018-07-07T01:08:32.750Z,85.60
2018-07-07T01:09:32.708Z,82.37
2018-07-07T01:10:32.532Z,79.99
2018-07-07T01:11:32.443Z,83.51
2018-07-07T01:12:32.353Z,84.17
2018-07-07T01:13:32.292Z,83.41
2018-07-07T01:14:32.168Z,82.18
2018-07-07T01:15:32.073Z,80.27
2018-07-07T01:16:31.981Z,79.89
2018-07-07T01:17:31.886Z,79.80
2018-07-07T01:18:31.839Z,80.36
2018-07-07T01:19:31.703Z,80.18
2018-07-07T01:20:31.609Z,81.13
2018-07-07T01:21:31.516Z,80.94
2018-07-07T01:22:31.423Z,80.08
2018-07-07T01:23:31.365Z,80.18
2018-07-07T01:24:31.241Z,82.93
2018-07-07T01:25:31.145Z,83.61
2018-07-07T01:26:31.055Z,82.37
2018-07-07T01:27:30.966Z,81.79
2018-07-07T01:28:30.900Z,81.32
2018-07-07T01:29:30.775Z,81.70
2018-07-07T01:30:30.680Z,83.61
2018-07-07T01:31:30.592Z,83.65
2018-07-07T01:32:30.499Z,82.99
2018-07-07T01:33:30.434Z,82.27
2018-07-07T01:34:30.312Z,81.79
2018-07-07T01:35:30.221Z,80.36
2018-07-07T01:36:30.128Z,77.89
2018-07-07T01:37:30.031Z,75.70
2018-07-07T01:38:30.058Z,74.27
2018-07-07T01:39:29.845Z,72.02
2018-07-07T01:40:29.754Z,69.54
2018-07-07T01:41:29.662Z,67.93
2018-07-07T01:42:29.573Z,65.36
2018-07-07T01:43:29.504Z,63.45
2018-07-07T01:44:29.384Z,61.54
2018-07-07T01:45:29.288Z,59.83
2018-07-07T01:46:29.196Z,58.30
2018-07-07T01:47:29.106Z,57.64
2018-07-07T01:48:29.044Z,57.07
2018-07-07T01:49:28.918Z,57.54
2018-07-07T01:50:28.828Z,57.64
2018-07-07T01:51:28.736Z,58.40
2018-07-07T01:52:28.643Z,59.16
2018-07-07T01:53:28.579Z,59.89
2018-07-07T01:54:28.454Z,60.18
2018-07-07T01:55:28.362Z,61.32
2018-07-07T01:56:28.271Z,62.75
2018-07-07T01:57:28.178Z,63.60
2018-07-07T01:58:28.117Z,63.99
2018-07-07T01:59:28.095Z,64.84
2018-07-07T02:00:27.905Z,64.37
2018-07-07T02:01:27.803Z,63.99
2018-07-07T02:02:27.714Z,64.37
2018-07-07T02:03:27.656Z,64.37
2018-07-07T02:04:27.525Z,64.28
2018-07-07T02:05:27.432Z,64.47
2018-07-07T02:06:27.443Z,64.75
2018-07-07T02:07:27.246Z,65.03
2018-07-07T02:08:27.208Z,65.13
2018-07-07T02:09:27.084Z,64.62
2018-07-07T02:10:27.000Z,64.81
2018-07-07T02:11:26.875Z,64.90
2018-07-07T02:12:26.785Z,64.05
2018-07-07T02:13:26.784Z,62.56
2018-07-07T02:14:26.632Z,62.08
2018-07-07T02:15:26.504Z,61.80
2018-07-07T02:16:26.415Z,61.61
2018-07-07T02:17:26.318Z,61.61
2018-07-07T02:18:26.229Z,61.22
2018-07-07T02:19:26.172Z,61.99
2018-07-07T02:20:26.133Z,62.24
2018-07-07T02:21:25.946Z,62.24
2018-07-07T02:22:25.856Z,62.05
2018-07-07T02:23:25.765Z,62.62
2018-07-07T02:24:25.700Z,62.62
2018-07-07T02:25:25.576Z,63.20
2018-07-07T02:26:25.485Z,62.72
2018-07-07T02:27:25.480Z,62.15
2018-07-07T02:28:25.299Z,61.77
2018-07-07T02:29:25.233Z,61.32
2018-07-07T02:30:25.116Z,61.13
2018-07-07T02:31:25.020Z,60.75
2018-07-07T02:32:24.925Z,60.85
2018-07-07T02:33:24.838Z,59.96
2018-07-07T02:34:24.863Z,60.15
2018-07-07T02:35:24.646Z,60.72
2018-07-07T02:36:24.559Z,61.00
2018-07-07T02:37:24.459Z,61.10
2018-07-07T02:38:24.366Z,60.63
2018-07-07T02:39:24.315Z,60.82
2018-07-07T02:40:24.185Z,60.82
2018-07-07T02:41:24.177Z,60.72
2018-07-07T02:42:23.994Z,60.82
2018-07-07T02:43:23.901Z,60.34
2018-07-07T02:44:23.840Z,60.63
2018-07-07T02:45:23.714Z,60.63
2018-07-07T02:46:23.669Z,60.72
2018-07-07T02:47:23.529Z,60.63
2018-07-07T02:48:23.536Z,60.53
2018-07-07T02:49:23.378Z,59.96
2018-07-07T02:50:23.250Z,58.62
2018-07-07T02:51:23.156Z,58.06
2018-07-07T02:52:23.062Z,57.67
2018-07-07T02:53:22.970Z,57.67
2018-07-07T02:54:22.904Z,57.87
2018-07-07T02:55:22.876Z,57.77
2018-07-07T02:56:22.689Z,57.58
2018-07-07T02:57:22.609Z,57.48
2018-07-07T02:58:22.500Z,57.39
2018-07-07T02:59:22.440Z,57.39
2018-07-07T03:00:22.318Z,57.58
2018-07-07T03:01:22.222Z,57.20
2018-07-07T03:02:22.225Z,57.67
2018-07-07T03:03:22.072Z,57.39
2018-07-07T03:04:21.979Z,57.20
2018-07-07T03:05:21.848Z,57.10
2018-07-07T03:06:21.754Z,57.10
2018-07-07T03:07:21.663Z,57.10
2018-07-07T03:08:21.568Z,56.82
2018-07-07T03:09:21.513Z,57.20
2018-07-07T03:10:21.383Z,56.63
2018-07-07T03:11:21.292Z,55.90
2018-07-07T03:12:21.250Z,56.46
2018-07-07T03:13:21.101Z,56.15
2018-07-07T03:14:21.042Z,55.90
2018-07-07T03:15:20.917Z,55.87
2018-07-07T03:16:20.825Z,56.44
2018-07-07T03:17:20.729Z,57.01
2018-07-07T03:18:20.639Z,57.39
2018-07-07T03:19:20.574Z,57.29
2018-07-07T03:20:20.451Z,57.20
2018-07-07T03:21:20.356Z,57.58
2018-07-07T03:22:20.264Z,57.39
2018-07-07T03:23:20.193Z,57.58
2018-07-07T03:24:20.112Z,57.87
2018-07-07T03:25:19.983Z,57.58
2018-07-07T03:26:19.890Z,57.67
2018-07-07T03:27:19.798Z,57.87
2018-07-07T03:28:19.704Z,57.96
2018-07-07T03:29:19.641Z,57.96
2018-07-07T03:30:19.514Z,58.15
2018-07-07T03:31:19.423Z,58.62
2018-07-07T03:32:19.332Z,58.81
2018-07-07T03:33:19.234Z,58.72
2018-07-07T03:34:19.175Z,59.58
2018-07-07T03:35:19.050Z,60.05
2018-07-07T03:36:18.958Z,60.15
2018-07-07T03:37:18.864Z,60.44
2018-07-07T03:38:18.769Z,61.86
2018-07-07T03:39:18.707Z,62.40
2018-07-07T03:40:18.583Z,62.21
2018-07-07T03:41:18.489Z,61.55
2018-07-07T03:42:18.472Z,61.74
2018-07-07T03:43:18.304Z,61.93
2018-07-07T03:44:18.213Z,61.64
2018-07-07T03:45:18.149Z,62.78
2018-07-07T03:46:18.021Z,64.31
2018-07-07T03:47:17.931Z,65.64
2018-07-07T03:48:17.833Z,67.73
2018-07-07T03:49:17.764Z,67.73
2018-07-07T03:50:17.686Z,67.73
2018-07-07T03:51:17.557Z,67.79
2018-07-07T03:52:17.460Z,68.27
2018-07-07T03:53:17.365Z,69.31
2018-07-07T03:54:17.275Z,69.41
2018-07-07T03:55:17.215Z,69.31
2018-07-07T03:56:17.089Z,68.74
2018-07-07T03:57:16.990Z,68.07
2018-07-07T03:58:16.899Z,66.94
2018-07-07T03:59:16.806Z,65.35
2018-07-07T04:00:16.749Z,64.50
2018-07-07T04:01:16.621Z,64.97
2018-07-07T04:02:16.526Z,64.69
2018-07-07T04:03:16.432Z,64.78
2018-07-07T04:04:16.336Z,64.87
2018-07-07T04:05:16.275Z,65.54
2018-07-07T04:06:16.152Z,65.16
2018-07-07T04:07:16.113Z,64.69
2018-07-07T04:08:15.963Z,63.92
2018-07-07T04:09:15.868Z,63.07
2018-07-07T04:10:15.809Z,63.35
2018-07-07T04:11:15.681Z,64.21
2018-07-07T04:12:15.590Z,64.87
2018-07-07T04:13:15.494Z,65.25
2018-07-07T04:14:15.399Z,66.11
2018-07-07T04:15:15.336Z,68.11
2018-07-07T04:16:15.213Z,70.39
2018-07-07T04:17:15.122Z,72.39
2018-07-07T04:18:15.024Z,74.20
2018-07-07T04:19:14.933Z,75.24
2018-07-07T04:20:14.884Z,76.39
2018-07-07T04:21:14.746Z,77.91
2018-07-07T04:22:14.651Z,78.96
2018-07-07T04:23:14.558Z,78.77
2018-07-07T04:24:14.466Z,79.62
2018-07-07T04:25:14.402Z,79.14
2018-07-07T04:26:14.276Z,78.80
2018-07-07T04:27:14.182Z,78.42
2018-07-07T04:28:14.091Z,78.61
2018-07-07T04:29:14.000Z,78.61
2018-07-07T04:30:13.936Z,79.09
2018-07-07T04:31:13.813Z,79.28
2018-07-07T04:32:13.716Z,79.75
2018-07-07T04:33:13.621Z,79.75
2018-07-07T04:34:13.532Z,81.37
2018-07-07T04:35:13.467Z,81.89
2018-07-07T04:36:13.345Z,82.65
2018-07-07T04:37:13.250Z,83.03
2018-07-07T04:38:13.157Z,83.22
2018-07-07T04:39:13.065Z,83.80
2018-07-07T04:40:13.009Z,84.08
2018-07-07T04:41:12.877Z,84.79
2018-07-07T04:42:12.787Z,84.65
2018-07-07T04:43:12.693Z,85.55
2018-07-07T04:44:12.599Z,86.12
2018-07-07T04:45:12.535Z,87.27
2018-07-07T04:46:12.411Z,88.37
2018-07-07T04:47:12.320Z,88.98
2018-07-07T04:48:12.227Z,89.36
2018-07-07T04:49:12.132Z,89.75
2018-07-07T04:50:12.072Z,90.60
2018-07-07T04:51:11.958Z,91.55
2018-07-07T04:52:11.858Z,92.32
2018-07-07T04:53:11.761Z,92.41
2018-07-07T04:54:11.759Z,92.98
2018-07-07T04:55:11.610Z,93.55
2018-07-07T04:56:11.483Z,94.70
2018-07-07T04:57:11.391Z,95.56
2018-07-07T04:58:11.296Z,96.41
2018-07-07T04:59:11.208Z,96.70
2018-07-07T05:00:11.145Z,97.65
2018-07-07T05:01:11.023Z,97.32
2018-07-07T05:02:10.930Z,97.51
2018-07-07T05:03:10.843Z,97.89
2018-07-07T05:04:10.743Z,98.46
2018-07-07T05:05:10.682Z,98.56
2018-07-07T05:06:10.557Z,98.65
2018-07-07T05:07:10.467Z,99.04
2018-07-07T05:08:10.465Z,99.60
2018-07-07T05:09:10.281Z,99.80
2018-07-07T05:10:10.215Z,99.84
2018-07-07T05:11:10.097Z,99.99
2018-07-07T05:12:10.007Z,99.99
2018-07-07T05:13:09.911Z,99.99
2018-07-07T05:14:09.817Z,99.99
2018-07-07T05:15:09.822Z,99.99
2018-07-07T05:16:09.668Z,99.99
2018-07-07T05:17:09.595Z,99.99
2018-07-07T05:18:09.448Z,99.99
2018-07-07T05:19:09.358Z,99.99
2018-07-07T05:20:09.262Z,99.99
2018-07-07T05:21:09.201Z,99.99
2018-07-07T05:22:09.178Z,99.99
2018-07-07T05:23:08.988Z,99.99
2018-07-07T05:24:08.895Z,99.99
2018-07-07T05:25:08.806Z,99.99
2018-07-07T05:26:08.744Z,99.99
2018-07-07T05:27:08.625Z,99.99
2018-07-07T05:28:08.528Z,99.99
2018-07-07T05:29:08.534Z,99.99
2018-07-07T05:30:08.345Z,99.99
2018-07-07T05:31:08.282Z,99.99
2018-07-07T05:32:08.198Z,99.99
2018-07-07T05:33:08.068Z,99.99
2018-07-07T05:34:07.976Z,99.99
2018-07-07T05:35:07.887Z,99.99
2018-07-07T05:36:07.916Z,99.99
2018-07-07T05:37:07.715Z,99.99
2018-07-07T05:38:07.614Z,99.99
2018-07-07T05:39:07.516Z,99.99
2018-07-07T05:40:07.426Z,99.99
2018-07-07T05:41:07.364Z,99.99
2018-07-07T05:42:07.250Z,99.99
2018-07-07T05:43:07.256Z,99.99
2018-07-07T05:44:07.059Z,99.99
2018-07-07T05:45:06.971Z,99.99
2018-07-07T05:46:06.908Z,99.99
2018-07-07T05:47:06.787Z,99.99
2018-07-07T05:48:06.697Z,99.99
2018-07-07T05:49:06.603Z,99.99
2018-07-07T05:50:06.695Z,99.99
2018-07-07T05:51:06.452Z,99.99
2018-07-07T05:52:06.332Z,99.99
2018-07-07T05:53:06.241Z,99.99
2018-07-07T05:54:06.153Z,99.99
2018-07-07T05:55:06.063Z,99.99
2018-07-07T05:56:06.002Z,99.99
2018-07-07T05:57:05.966Z,99.99
2018-07-07T05:58:05.787Z,99.99
2018-07-07T05:59:05.698Z,99.99
2018-07-07T06:00:05.608Z,99.99
2018-07-07T06:01:05.545Z,99.99
2018-07-07T06:02:05.429Z,99.99
2018-07-07T06:03:05.337Z,99.99
2018-07-07T06:04:05.343Z,99.99
2018-07-07T06:05:05.153Z,99.99
2018-07-07T06:06:05.101Z,99.99
2018-07-07T06:07:04.972Z,99.99
2018-07-07T06:08:04.883Z,99.99
2018-07-07T06:09:04.796Z,99.99
2018-07-07T06:10:04.703Z,99.99
2018-07-07T06:11:04.644Z,99.99
2018-07-07T06:12:04.521Z,99.99
2018-07-07T06:13:04.433Z,99.99
2018-07-07T06:14:04.365Z,99.99
2018-07-07T06:15:04.251Z,99.99
2018-07-07T06:16:04.192Z,99.99
2018-07-07T06:17:04.071Z,99.99
2018-07-07T06:18:04.071Z,99.99
2018-07-07T06:19:03.891Z,99.99
2018-07-07T06:20:03.803Z,99.99
2018-07-07T06:21:03.743Z,99.99
2018-07-07T06:22:03.622Z,99.99
2018-07-07T06:23:03.532Z,99.99
2018-07-07T06:24:03.457Z,99.99
2018-07-07T06:25:03.348Z,99.99
2018-07-07T06:26:03.297Z,99.99
2018-07-07T06:27:03.171Z,99.99
2018-07-07T06:28:03.081Z,99.62
2018-07-07T06:29:02.989Z,99.99
2018-07-07T06:30:02.900Z,99.99
2018-07-07T06:31:02.842Z,99.99
2018-07-07T06:32:02.721Z,97.75
2018-07-07T06:33:02.629Z,98.33
2018-07-07T06:34:02.541Z,99.05
2018-07-07T06:35:02.451Z,99.15
2018-07-07T06:36:02.390Z,98.86
2018-07-07T06:37:02.271Z,96.66
2018-07-07T06:38:02.185Z,96.75
2018-07-07T06:39:02.097Z,95.36
2018-07-07T06:40:02.001Z,93.74
2018-07-07T06:41:01.947Z,94.31
2018-07-07T06:42:01.825Z,93.21
2018-07-07T06:43:01.733Z,92.35
2018-07-07T06:44:01.644Z,92.15
2018-07-07T06:45:01.568Z,91.82
2018-07-07T06:46:01.470Z,90.00
2018-07-07T06:47:01.411Z,89.04
2018-07-07T06:48:01.289Z,89.08
2018-07-07T06:49:01.199Z,86.49
2018-07-07T06:50:01.109Z,85.28
2018-07-07T06:51:01.025Z,85.63
2018-07-07T06:52:00.963Z,85.28
2018-07-07T06:53:00.844Z,84.95
2018-07-07T06:54:00.914Z,84.42
2018-07-07T06:55:00.670Z,82.98
2018-07-07T06:56:00.594Z,82.21
2018-07-07T06:57:00.524Z,83.31
2018-07-07T06:58:00.406Z,81.78
2018-07-07T06:59:00.320Z,81.97
2018-07-07T07:00:00.286Z,83.12
2018-07-07T07:01:00.150Z,82.51
2018-07-07T07:02:00.096Z,81.74
2018-07-07T07:02:59.973Z,82.03
2018-07-07T07:03:59.885Z,82.89
2018-07-07T07:04:59.801Z,83.33
2018-07-07T07:05:59.711Z,84.28
2018-07-07T07:06:59.674Z,85.05
2018-07-07T07:07:59.539Z,84.95
2018-07-07T07:08:59.457Z,84.28
2018-07-07T07:09:59.371Z,85.34
2018-07-07T07:10:59.281Z,85.58
2018-07-07T07:11:59.293Z,86.49
2018-07-07T07:12:59.111Z,85.82
2018-07-07T07:13:59.024Z,85.34
2018-07-07T07:14:58.938Z,85.28
2018-07-07T07:15:58.851Z,84.42
2018-07-07T07:16:58.795Z,85.00
2018-07-07T07:17:58.678Z,85.77
2018-07-07T07:18:58.594Z,86.25
2018-07-07T07:19:58.545Z,85.10
2018-07-07T07:20:58.421Z,85.19
2018-07-07T07:21:58.374Z,84.04
2018-07-07T07:22:58.248Z,84.38
2018-07-07T07:23:58.164Z,83.42
2018-07-07T07:24:58.079Z,84.23
2018-07-07T07:25:58.134Z,83.56
2018-07-07T07:26:57.939Z,83.75
2018-07-07T07:27:57.818Z,83.56
2018-07-07T07:28:57.736Z,84.52
2018-07-07T07:29:57.646Z,84.42
2018-07-07T07:30:57.563Z,85.48
2018-07-07T07:31:57.511Z,85.19
2018-07-07T07:32:57.493Z,85.28
2018-07-07T07:33:57.304Z,85.05
2018-07-07T07:34:57.221Z,87.64
2018-07-07T07:35:57.134Z,86.30
2018-07-07T07:36:57.122Z,86.49
2018-07-07T07:37:56.969Z,85.63
2018-07-07T07:38:56.876Z,85.82
2018-07-07T07:39:56.897Z,85.72
2018-07-07T07:40:56.704Z,86.05
2018-07-07T07:41:56.651Z,85.67
2018-07-07T07:42:56.533Z,85.10
2018-07-07T07:43:56.444Z,85.38
2018-07-07T07:44:56.360Z,83.94
2018-07-07T07:45:56.276Z,83.94
2018-07-07T07:46:56.313Z,82.51
2018-07-07T07:47:56.101Z,81.54
2018-07-07T07:48:56.016Z,81.70
2018-07-07T07:49:55.952Z,80.40
2018-07-07T07:50:55.846Z,79.47
2018-07-07T07:51:55.790Z,78.02
2018-07-07T07:52:55.674Z,77.09
2018-07-07T07:53:55.679Z,76.96
2018-07-07T07:54:55.504Z,74.94
2018-07-07T07:55:55.415Z,75.52
2018-07-07T07:56:55.363Z,72.73
2018-07-07T07:57:55.243Z,72.50
2018-07-07T07:58:55.202Z,73.27
2018-07-07T07:59:55.078Z,71.98
2018-07-07T08:00:55.097Z,71.98
2018-07-07T08:01:54.933Z,72.28
2018-07-07T08:02:54.817Z,72.24
2018-07-07T08:03:54.731Z,72.95
2018-07-07T08:04:54.709Z,73.10
2018-07-07T08:05:54.561Z,71.09
2018-07-07T08:06:54.508Z,70.70
2018-07-07T08:07:54.484Z,70.55
2018-07-07T08:08:54.305Z,69.43
2018-07-07T08:09:54.221Z,68.79
2018-07-07T08:10:54.133Z,67.29
2018-07-07T08:11:54.076Z,67.51
2018-07-07T08:12:53.959Z,67.13
2018-07-07T08:13:53.875Z,66.68
2018-07-07T08:14:53.881Z,64.08
2018-07-07T08:15:53.704Z,63.60
2018-07-07T08:16:53.627Z,65.05
2018-07-07T08:17:53.568Z,65.53
2018-07-07T08:18:53.449Z,66.24
2018-07-07T08:19:53.366Z,64.98
2018-07-07T08:20:53.318Z,64.89
2018-07-07T08:21:53.318Z,62.12
2018-07-07T08:22:53.165Z,63.38
2018-07-07T08:23:53.026Z,62.63
2018-07-07T08:24:52.942Z,62.83
2018-07-07T08:25:52.858Z,60.32
2018-07-07T08:26:52.773Z,59.10
2018-07-07T08:27:52.724Z,59.00
2018-07-07T08:28:52.696Z,59.00
2018-07-07T08:29:52.523Z,58.42
2018-07-07T08:30:52.438Z,57.20
2018-07-07T08:31:52.359Z,57.29
2018-07-07T08:32:52.304Z,57.49
2018-07-07T08:33:52.194Z,56.43
2018-07-07T08:34:52.107Z,56.52
2018-07-07T08:35:52.020Z,57.49
2018-07-07T08:36:51.940Z,57.62
2018-07-07T08:37:51.889Z,57.68
2018-07-07T08:38:51.774Z,56.74
2018-07-07T08:39:51.693Z,55.10
2018-07-07T08:40:51.608Z,55.20
2018-07-07T08:41:51.548Z,56.36
2018-07-07T08:42:51.571Z,54.36
2018-07-07T08:43:51.364Z,52.23
2018-07-07T08:44:51.278Z,50.59
2018-07-07T08:45:51.205Z,50.98
2018-07-07T08:46:51.116Z,51.46
2018-07-07T08:47:51.067Z,52.53
2018-07-07T08:48:51.044Z,53.03
2018-07-07T08:49:50.866Z,51.97
2018-07-07T08:50:50.788Z,53.91
2018-07-07T08:51:50.707Z,54.39
2018-07-07T08:52:50.658Z,54.46
2018-07-07T08:53:50.546Z,54.55
2018-07-07T08:54:50.462Z,54.46
2018-07-07T08:55:50.382Z,54.33
2018-07-07T08:56:50.299Z,53.31
2018-07-07T08:57:50.250Z,54.93
2018-07-07T08:58:50.135Z,56.44
2018-07-07T08:59:50.054Z,56.54
2018-07-07T09:00:49.971Z,58.01
2018-07-07T09:01:49.894Z,57.34
2018-07-07T09:02:49.839Z,57.75
2018-07-07T09:03:49.727Z,58.42
2018-07-07T09:04:49.643Z,57.29
2018-07-07T09:05:49.564Z,55.78
2018-07-07T09:06:49.484Z,51.95
2018-07-07T09:07:49.461Z,53.75
2018-07-07T09:08:49.316Z,52.04
2018-07-07T09:09:49.234Z,50.40
2018-07-07T09:10:49.155Z,48.35
2018-07-07T09:11:49.071Z,51.25
2018-07-07T09:12:49.029Z,51.80
2018-07-07T09:13:48.910Z,54.40
2018-07-07T09:14:48.826Z,53.66
2018-07-07T09:15:48.752Z,53.59
2018-07-07T09:16:48.663Z,53.39
2018-07-07T09:17:48.612Z,52.36
2018-07-07T09:18:48.533Z,52.39
2018-07-07T09:19:48.422Z,49.22
2018-07-07T09:20:48.338Z,51.08
2018-07-07T09:21:48.257Z,45.95
2018-07-07T09:22:48.206Z,44.96
2018-07-07T09:23:48.093Z,48.13
2018-07-07T09:24:48.014Z,49.41
2018-07-07T09:25:47.934Z,47.94
2018-07-07T09:26:47.851Z,45.62
2018-07-07T09:27:47.804Z,44.38
2018-07-07T09:28:47.693Z,44.48
2018-07-07T09:29:47.619Z,43.41
2018-07-07T09:30:47.571Z,43.90
2018-07-07T09:31:47.450Z,43.73
2018-07-07T09:32:47.401Z,43.75
2018-07-07T09:33:47.282Z,44.43
2018-07-07T09:34:47.205Z,41.70
2018-07-07T09:35:47.126Z,39.11
2018-07-07T09:36:47.045Z,40.28
2018-07-07T09:37:47.002Z,40.48
2018-07-07T09:38:46.926Z,41.83
2018-07-07T09:39:46.805Z,41.52
2018-07-07T09:40:46.725Z,40.44
2018-07-07T09:41:46.645Z,42.25
2018-07-07T09:42:46.597Z,43.13
2018-07-07T09:43:46.487Z,43.10
2018-07-07T09:44:46.402Z,43.32
2018-07-07T09:45:46.328Z,41.39
2018-07-07T09:46:46.246Z,41.99
2018-07-07T09:47:46.169Z,44.04
2018-07-07T09:48:46.120Z,43.85
2018-07-07T09:49:46.006Z,41.16
2018-07-07T09:50:45.927Z,37.88
2018-07-07T09:51:45.845Z,38.68
2018-07-07T09:52:45.768Z,39.55
2018-07-07T09:53:45.717Z,40.64
2018-07-07T09:54:45.605Z,39.47
2018-07-07T09:55:45.530Z,38.68
2018-07-07T09:56:45.447Z,40.13
2018-07-07T09:57:45.370Z,40.59
2018-07-07T09:58:45.320Z,41.08
2018-07-07T09:59:45.212Z,40.59
2018-07-07T10:00:45.133Z,38.19
2018-07-07T10:01:45.052Z,40.13
2018-07-07T10:02:44.974Z,40.03
2018-07-07T10:03:44.924Z,39.36
2018-07-07T10:04:44.812Z,38.85
2018-07-07T10:05:44.734Z,39.16
2018-07-07T10:06:44.659Z,40.83
2018-07-07T10:07:44.672Z,38.96
2018-07-07T10:08:44.526Z,40.50
2018-07-07T10:09:44.417Z,41.47
2018-07-07T10:10:44.342Z,40.81
2018-07-07T10:11:44.260Z,37.41
2018-07-07T10:12:44.183Z,37.61
2018-07-07T10:13:44.135Z,37.82
2018-07-07T10:14:44.024Z,39.86
2018-07-07T10:15:43.947Z,39.57
2018-07-07T10:16:43.865Z,41.56
2018-07-07T10:17:43.790Z,38.25
2018-07-07T10:18:43.752Z,37.59
2018-07-07T10:19:43.630Z,40.59
2018-07-07T10:20:43.604Z,40.01
2018-07-07T10:21:43.478Z,40.81
2018-07-07T10:22:43.393Z,41.58
2018-07-07T10:23:43.344Z,39.26
2018-07-07T10:24:43.235Z,39.04
2018-07-07T10:25:43.155Z,39.45
2018-07-07T10:26:43.077Z,38.87
2018-07-07T10:27:42.997Z,40.91
2018-07-07T10:28:42.951Z,38.96
2018-07-07T10:29:42.837Z,39.16
2018-07-07T10:30:42.760Z,38.96
2018-07-07T10:31:42.686Z,38.96
2018-07-07T10:32:42.601Z,38.07
2018-07-07T10:33:42.555Z,39.84
2018-07-07T10:34:42.443Z,41.30
2018-07-07T10:35:42.364Z,41.58
2018-07-07T10:36:42.286Z,40.33
2018-07-07T10:37:42.208Z,38.12
2018-07-07T10:38:42.160Z,38.99
2018-07-07T10:39:42.055Z,40.13
2018-07-07T10:40:41.977Z,38.87
2018-07-07T10:41:41.890Z,36.93
2018-07-07T10:42:41.815Z,37.01
2018-07-07T10:43:41.770Z,36.72
2018-07-07T10:44:41.658Z,36.33
2018-07-07T10:45:41.662Z,34.78
2018-07-07T10:46:41.497Z,36.72
2018-07-07T10:47:41.425Z,38.09
2018-07-07T10:48:41.738Z,37.82
2018-07-07T10:49:41.262Z,39.94
2018-07-07T10:50:41.184Z,40.23
2018-07-07T10:51:41.103Z,39.47
2018-07-07T10:52:41.026Z,36.66
2018-07-07T10:53:40.985Z,38.79
2018-07-07T10:54:40.869Z,38.29
2018-07-07T10:55:40.881Z,38.89
2018-07-07T10:56:40.711Z,37.43
2018-07-07T10:57:40.630Z,37.71
2018-07-07T10:58:40.589Z,38.78
2018-07-07T10:59:40.473Z,39.45
2018-07-07T11:00:40.394Z,37.81
2018-07-07T11:01:40.314Z,36.62
2018-07-07T11:02:40.476Z,38.00
2018-07-07T11:03:40.187Z,36.64
2018-07-07T11:04:40.078Z,38.40
2018-07-07T11:05:40.002Z,36.64
2018-07-07T11:06:39.926Z,37.15
2018-07-07T11:07:39.843Z,37.65
2018-07-07T11:08:39.794Z,39.12
2018-07-07T11:09:39.777Z,37.94
2018-07-07T11:10:39.606Z,37.18
2018-07-07T11:11:39.533Z,39.29
2018-07-07T11:12:39.446Z,36.69
2018-07-07T11:13:39.401Z,33.49
2018-07-07T11:14:39.293Z,37.57
2018-07-07T11:15:39.213Z,34.95
2018-07-07T11:16:39.223Z,36.02
2018-07-07T11:17:39.071Z,37.08
2018-07-07T11:18:38.982Z,36.99
2018-07-07T11:19:38.928Z,38.93
2018-07-07T11:20:38.818Z,37.94
2018-07-07T11:21:38.747Z,37.43
2018-07-07T11:22:38.662Z,36.68
2018-07-07T11:23:38.679Z,37.08
2018-07-07T11:24:38.538Z,36.87
2018-07-07T11:25:38.433Z,38.52
2018-07-07T11:26:38.348Z,39.01
2018-07-07T11:27:38.271Z,38.40
2018-07-07T11:28:38.194Z,38.00
2018-07-07T11:29:38.150Z,36.76
2018-07-07T11:30:38.126Z,35.98
2018-07-07T11:31:37.956Z,40.25
2018-07-07T11:32:37.876Z,40.56
2018-07-07T11:33:37.801Z,40.19
2018-07-07T11:34:37.754Z,36.95
2018-07-07T11:35:37.643Z,35.78
2018-07-07T11:36:37.797Z,36.27
2018-07-07T11:37:37.488Z,37.63
2018-07-07T11:38:37.406Z,38.60
2018-07-07T11:39:37.363Z,36.08
2018-07-07T11:40:37.252Z,36.85
2018-07-07T11:41:37.172Z,40.15
2018-07-07T11:42:37.097Z,36.77
2018-07-07T11:43:37.015Z,36.50
2018-07-07T11:44:36.964Z,35.24
2018-07-07T11:45:36.860Z,35.92
2018-07-07T11:46:36.778Z,37.07
2018-07-07T11:47:36.699Z,35.63
2018-07-07T11:48:36.623Z,38.75
2018-07-07T11:49:36.573Z,38.19
2018-07-07T11:50:36.473Z,37.22
2018-07-07T11:51:36.385Z,35.27
2018-07-07T11:52:36.312Z,32.08
2018-07-07T11:53:36.227Z,32.35
2018-07-07T11:54:36.179Z,32.94
2018-07-07T11:55:36.071Z,31.87
2018-07-07T11:56:35.991Z,32.34
2018-07-07T11:57:35.914Z,36.89
2018-07-07T11:58:35.838Z,37.86
2018-07-07T11:59:35.793Z,38.99
2018-07-07T12:00:35.680Z,38.21
2018-07-07T12:01:35.605Z,38.21
2018-07-07T12:02:35.529Z,38.31
2018-07-07T12:03:35.445Z,36.54
2018-07-07T12:04:35.450Z,37.90
2018-07-07T12:05:35.291Z,37.81
2018-07-07T12:06:35.211Z,37.51
2018-07-07T12:07:35.136Z,39.18
2018-07-07T12:08:35.058Z,37.65
2018-07-07T12:09:35.010Z,36.79
2018-07-07T12:10:34.899Z,37.47
2018-07-07T12:11:34.902Z,36.42
2018-07-07T12:12:34.743Z,35.35
2018-07-07T12:13:34.663Z,34.88
2018-07-07T12:14:34.618Z,37.78
2018-07-07T12:15:34.506Z,36.34
2018-07-07T12:16:34.428Z,34.50
2018-07-07T12:17:34.542Z,35.49
2018-07-07T12:18:34.273Z,33.43
2018-07-07T12:19:34.227Z,33.53
2018-07-07T12:20:34.114Z,34.28
2018-07-07T12:21:34.040Z,36.91
2018-07-07T12:22:33.960Z,36.83
2018-07-07T12:23:33.879Z,36.34
2018-07-07T12:24:33.832Z,37.20
2018-07-07T12:25:33.724Z,37.66
2018-07-07T12:26:33.652Z,38.17
2018-07-07T12:27:33.583Z,37.88
2018-07-07T12:28:33.491Z,38.34
2018-07-07T12:29:33.461Z,38.83
2018-07-07T12:30:33.337Z,39.22
2018-07-07T12:31:33.351Z,39.61
2018-07-07T12:32:33.178Z,36.52
2018-07-07T12:33:33.100Z,36.24
2018-07-07T12:34:33.057Z,34.30
2018-07-07T12:35:32.946Z,35.06
2018-07-07T12:36:32.881Z,38.65
2018-07-07T12:37:32.790Z,38.17
2018-07-07T12:38:32.711Z,39.43
2018-07-07T12:39:32.667Z,38.65
2018-07-07T12:40:32.611Z,37.08
2018-07-07T12:41:32.480Z,37.59
2018-07-07T12:42:32.402Z,37.01
2018-07-07T12:43:32.369Z,38.09
2018-07-07T12:44:32.279Z,36.91
2018-07-07T12:45:32.167Z,35.84
2018-07-07T12:46:32.091Z,37.10
2018-07-07T12:47:32.012Z,38.34
2018-07-07T12:48:31.935Z,38.34
2018-07-07T12:49:31.888Z,38.46
2018-07-07T12:50:31.779Z,36.71
2018-07-07T12:51:31.703Z,34.97